Time;durP1;ratioP1;P1;durP2;ratioP2;P2;SDS_P1;SDS_P2;PMS_P1;PMS_P2;Temp;Humidity;BMP_temperature;BMP_pressure;BME280_temperature;BME280_humidity;BME280_pressure;Samples;Min_cycle;Max_cycle;Signal;HPM_P1;HPM_P2
2022/01/26 00:07:11;;;;;;;66.25;30.02;;;4.00;99.90;;;;;;5048211;28;20071;-70
2022/01/26 00:09:36;;;;;;;65.22;28.70;;;4.00;99.90;;;;;;5049741;28;20666;-70
2022/01/26 00:12:02;;;;;;;58.15;28.58;;;4.00;99.90;;;;;;5034596;28;20525;-70
2022/01/26 00:14:28;;;;;;;64.85;28.65;;;4.00;99.90;;;;;;5035976;28;20045;-70
2022/01/26 00:16:53;;;;;;;68.50;30.58;;;3.90;99.90;;;;;;5050377;28;20059;-70
2022/01/26 00:19:26;;;;;;;70.63;28.35;;;3.90;99.90;;;;;;5040558;28;20048;-70
2022/01/26 00:21:52;;;;;;;66.70;29.85;;;4.00;99.90;;;;;;5040727;28;20056;-70
2022/01/26 00:24:48;;;;;;;72.32;31.25;;;3.90;99.90;;;;;;5052647;28;20080;-70
2022/01/26 00:29:38;;;;;;;69.53;29.98;;;3.90;99.90;;;;;;5056463;28;20067;-70
2022/01/26 00:43:00;;;;;;;65.20;28.67;;;3.90;99.90;;;;;;5052192;28;20060;-70
2022/01/26 00:45:33;;;;;;;69.68;29.98;;;3.80;99.90;;;;;;5054906;28;20033;-70
2022/01/26 00:48:02;;;;;;;69.25;31.08;;;3.80;99.90;;;;;;5047864;28;20043;-70
2022/01/26 00:50:28;;;;;;;74.40;30.30;;;3.80;99.90;;;;;;5055750;28;20652;-70
2022/01/26 00:52:55;;;;;;;67.57;30.75;;;3.80;99.90;;;;;;5041785;28;20140;-70
2022/01/26 00:55:21;;;;;;;71.25;29.63;;;3.80;99.90;;;;;;5072960;28;20044;-70
2022/01/26 00:57:47;;;;;;;62.67;28.70;;;3.80;99.90;;;;;;5055238;28;20059;-70
2022/01/26 01:00:21;;;;;;;69.43;30.63;;;3.80;99.90;;;;;;5035253;28;20097;-70
2022/01/26 01:02:47;;;;;;;71.95;31.05;;;3.80;99.90;;;;;;5056698;28;20048;-70
2022/01/26 01:05:19;;;;;;;67.20;28.05;;;3.70;99.90;;;;;;5044785;28;20048;-70
2022/01/26 01:07:47;;;;;;;;;;;3.80;99.90;;;;;;5051769;28;20044;-70
2022/01/26 01:10:16;;;;;;;67.78;28.45;;;3.70;99.90;;;;;;5051639;28;19969;-70
2022/01/26 01:12:44;;;;;;;67.72;29.15;;;3.70;99.90;;;;;;5054051;28;20067;-70
2022/01/26 01:15:11;;;;;;;71.38;31.00;;;3.70;99.90;;;;;;5054112;28;20040;-70
2022/01/26 01:17:44;;;;;;;66.45;29.10;;;3.70;99.90;;;;;;5043508;28;20044;-70
2022/01/26 01:26:06;;;;;;;69.78;29.65;;;3.80;99.90;;;;;;5045199;28;20643;-70
2022/01/26 01:30:57;;;;;;;64.63;28.95;;;3.70;99.90;;;;;;5051401;28;20048;-70
2022/01/26 01:33:30;;;;;;;66.10;30.80;;;3.70;99.90;;;;;;5035332;28;20428;-70
2022/01/26 01:35:58;;;;;;;67.25;30.80;;;3.70;99.90;;;;;;5050071;28;20124;-70
2022/01/26 01:38:26;;;;;;;68.13;29.40;;;3.70;99.90;;;;;;5059195;28;20044;-70
2022/01/26 01:40:52;;;;;;;68.50;29.80;;;3.70;99.90;;;;;;5050805;28;20052;-70
2022/01/26 01:43:21;;;;;;;70.70;31.38;;;3.60;99.90;;;;;;5031349;28;20033;-70
2022/01/26 01:45:50;;;;;;;70.13;30.70;;;3.80;99.90;;;;;;5032342;28;20454;-71
2022/01/26 01:48:22;;;;;;;68.15;30.90;;;3.70;99.90;;;;;;5030834;28;20049;-70
2022/01/26 01:50:50;;;;;;;71.07;30.90;;;3.70;99.90;;;;;;5031588;28;20364;-70
2022/01/26 01:53:18;;;;;;;71.35;30.88;;;3.60;99.90;;;;;;5028984;28;20124;-71
2022/01/26 01:55:49;;;;;;;70.60;31.65;;;3.70;99.90;;;;;;5033831;28;20037;-71
2022/01/26 01:58:15;;;;;;;70.78;29.92;;;3.60;99.90;;;;;;5050889;28;20098;-71
2022/01/26 02:00:41;;;;;;;73.55;31.40;;;3.60;99.90;;;;;;5032631;28;20079;-70
2022/01/26 02:03:07;;;;;;;70.32;30.55;;;3.70;99.90;;;;;;5030634;28;20060;-72
2022/01/26 02:05:32;;;;;;;69.35;30.95;;;3.60;99.90;;;;;;5032489;28;20036;-70
2022/01/26 02:08:01;;;;;;;74.00;31.42;;;3.60;99.90;;;;;;5032655;28;20540;-71
2022/01/26 02:10:29;;;;;;;73.63;30.92;;;3.70;99.90;;;;;;5050441;28;20061;-71
2022/01/26 02:12:57;;;;;;;70.43;31.30;;;3.70;99.90;;;;;;5031260;28;20046;-71
2022/01/26 02:15:30;;;;;;;70.97;30.42;;;3.70;99.90;;;;;;5018127;28;20039;-71
2022/01/26 02:55:56;;;;;;;71.35;30.42;;;3.60;99.90;;;;;;5024205;28;20111;-70
2022/01/26 03:01:12;;;;;;;66.93;28.70;;;3.60;99.90;;;;;;5032829;28;20080;-71
2022/01/26 03:03:43;;;;;;;73.10;30.58;;;3.60;99.90;;;;;;5017309;28;20412;-71
2022/01/26 03:06:15;;;;;;;65.35;29.13;;;3.50;99.90;;;;;;5033340;28;20045;-70
2022/01/26 03:08:43;;;;;;;67.22;29.52;;;3.50;99.90;;;;;;5033312;28;20111;-71
2022/01/26 03:11:11;;;;;;;65.28;27.67;;;3.60;99.90;;;;;;5032169;28;20045;-71
2022/01/26 03:13:42;;;;;;;70.45;29.85;;;3.60;99.90;;;;;;5033792;28;20112;-70
2022/01/26 03:16:14;;;;;;;69.05;27.75;;;3.50;99.90;;;;;;5033311;28;20048;-70
2022/01/26 03:21:10;;;;;;;70.15;29.60;;;3.60;99.90;;;;;;5041124;28;20456;-71
2022/01/26 03:34:18;;;;;;;70.72;28.67;;;3.50;99.90;;;;;;5026999;28;20041;-71
2022/01/26 03:36:57;;;;;;;71.55;29.42;;;3.50;99.90;;;;;;5013929;28;20041;-70
2022/01/26 03:39:24;;;;;;;73.68;28.17;;;3.50;99.90;;;;;;5016265;28;20049;-71
2022/01/26 03:42:05;;;;;;;70.40;30.23;;;3.50;99.90;;;;;;5012278;28;20041;-71
2022/01/26 03:44:31;;;;;;;70.75;30.92;;;3.50;99.90;;;;;;5013960;28;20133;-71
2022/01/26 03:46:56;;;;;;;73.60;30.85;;;3.50;99.90;;;;;;5011174;28;20041;-71
2022/01/26 03:49:22;;;;;;;70.90;29.65;;;3.40;99.90;;;;;;5011506;28;20037;-70
2022/01/26 03:51:48;;;;;;;74.10;30.75;;;3.40;99.90;;;;;;5013007;28;20030;-71
2022/01/26 03:54:14;;;;;;;71.78;31.23;;;3.40;99.90;;;;;;5013350;28;20434;-71
2022/01/26 03:56:41;;;;;;;68.90;29.70;;;3.40;99.90;;;;;;4996941;28;20072;-71
2022/01/26 03:59:06;;;;;;;70.25;30.27;;;3.40;99.90;;;;;;5012718;28;20033;-71
2022/01/26 04:01:33;;;;;;;72.93;31.85;;;3.40;99.90;;;;;;5029291;28;20052;-71
2022/01/26 04:03:59;;;;;;;71.82;30.25;;;3.40;99.90;;;;;;5012535;28;20065;-70
2022/01/26 04:06:25;;;;;;;71.07;30.90;;;3.40;99.90;;;;;;5024967;28;20061;-73
2022/01/26 04:08:51;;;;;;;71.28;30.20;;;3.40;99.90;;;;;;5012976;28;20537;-71
2022/01/26 04:13:42;;;;;;;70.00;29.20;;;3.40;99.90;;;;;;5013319;28;20139;-70
2022/01/26 04:16:08;;;;;;;76.20;30.88;;;3.40;99.90;;;;;;5005146;28;21649;-71
2022/01/26 04:18:37;;;;;;;70.95;29.88;;;3.40;99.90;;;;;;5021347;28;20045;-71
2022/01/26 04:21:57;;;;;;;67.60;28.85;;;3.40;99.90;;;;;;5022500;28;20519;-71
2022/01/26 04:24:17;;;;;;;70.15;30.70;;;3.40;99.90;;;;;;5022217;28;20041;-71
2022/01/26 04:26:49;;;;;;;76.72;30.80;;;3.40;99.90;;;;;;5023990;28;20044;-71
2022/01/26 04:29:22;;;;;;;67.80;29.63;;;3.40;99.90;;;;;;5016583;28;20578;-71
2022/01/26 04:31:47;;;;;;;71.68;30.42;;;3.40;99.90;;;;;;5032727;28;20055;-71
2022/01/26 04:34:13;;;;;;;71.00;30.10;;;3.40;99.90;;;;;;5009297;28;20569;-71
2022/01/26 04:36:49;;;;;;;70.85;31.20;;;3.40;99.90;;;;;;5050347;28;20071;-71
2022/01/26 04:39:20;;;;;;;71.93;30.63;;;3.40;99.90;;;;;;5027628;28;20037;-71
2022/01/26 04:41:51;;;;;;;70.28;31.30;;;3.40;99.90;;;;;;5031284;28;20748;-71
2022/01/26 04:44:23;;;;;;;68.57;28.45;;;3.30;99.90;;;;;;5030186;28;20063;-71
2022/01/26 04:46:50;;;;;;;65.72;29.40;;;3.30;99.90;;;;;;5032042;28;20041;-71
2022/01/26 04:49:16;;;;;;;71.45;31.02;;;3.40;99.90;;;;;;5029803;28;20086;-71
2022/01/26 04:51:42;;;;;;;64.55;28.40;;;3.30;99.90;;;;;;5032144;28;20040;-71
2022/01/26 04:54:08;;;;;;;70.25;29.67;;;3.40;99.90;;;;;;5016019;28;20124;-70
2022/01/26 04:56:33;;;;;;;69.90;29.48;;;3.40;99.90;;;;;;5032593;28;20116;-71
2022/01/26 04:58:59;;;;;;;70.78;31.33;;;3.30;99.90;;;;;;5025678;28;20041;-70
2022/01/26 05:01:24;;;;;;;63.28;28.48;;;3.30;99.90;;;;;;5030334;28;20103;-71
2022/01/26 05:03:50;;;;;;;65.47;28.38;;;3.30;99.90;;;;;;5050093;28;20053;-71
2022/01/26 05:06:15;;;;;;;65.28;28.77;;;3.20;99.90;;;;;;5032017;28;20044;-71
2022/01/26 05:08:41;;;;;;;69.82;28.95;;;3.30;99.90;;;;;;5024860;28;20065;-71
2022/01/26 05:11:09;;;;;;;65.60;28.85;;;3.30;99.90;;;;;;5048439;28;20458;-71
2022/01/26 05:13:35;;;;;;;62.78;27.80;;;3.30;99.90;;;;;;5028137;28;20041;-71
2022/01/26 05:16:01;;;;;;;66.85;27.60;;;3.30;99.90;;;;;;5054074;28;20045;-71
2022/01/26 05:18:28;;;;;;;63.58;28.30;;;3.30;99.90;;;;;;5033759;28;20053;-71
2022/01/26 05:20:53;;;;;;;65.53;29.33;;;3.40;99.90;;;;;;5032419;28;20072;-71
2022/01/26 05:23:19;;;;;;;65.38;28.17;;;3.30;99.90;;;;;;5032801;28;20046;-71
2022/01/26 05:25:44;;;;;;;64.28;27.38;;;3.40;99.90;;;;;;5035616;28;20041;-71
2022/01/26 05:28:10;;;;;;;65.97;27.50;;;3.40;99.90;;;;;;5048713;28;20029;-71
2022/01/26 05:30:35;;;;;;;61.50;27.20;;;3.30;99.90;;;;;;5044406;28;20096;-71
2022/01/26 05:33:01;;;;;;;58.88;26.23;;;3.40;99.90;;;;;;5024754;28;20691;-71
2022/01/26 05:35:27;;;;;;;64.63;27.73;;;3.40;99.90;;;;;;5034814;28;20048;-71
2022/01/26 05:37:52;;;;;;;60.60;28.40;;;3.40;99.90;;;;;;5053734;28;20044;-70
2022/01/26 05:40:18;;;;;;;63.67;28.02;;;3.30;99.90;;;;;;5035861;28;20375;-70
2022/01/26 05:42:43;;;;;;;61.38;27.65;;;3.40;99.90;;;;;;5026630;28;20378;-70
2022/01/26 05:45:22;;;;;;;72.18;33.80;;;3.30;99.90;;;;;;5015924;28;20034;-71
2022/01/26 05:47:47;;;;;;;68.03;33.28;;;3.30;99.90;;;;;;5031710;28;20045;-71
2022/01/26 05:50:13;;;;;;;60.25;27.80;;;3.30;99.90;;;;;;5030289;28;20485;-71
2022/01/26 05:52:38;;;;;;;62.95;26.55;;;3.30;99.90;;;;;;5032666;28;20083;-71
2022/01/26 05:55:04;;;;;;;56.92;24.98;;;3.30;99.90;;;;;;5052680;28;20040;-71
2022/01/26 05:57:30;;;;;;;58.50;26.75;;;3.30;99.90;;;;;;5034242;28;20044;-71
2022/01/26 05:59:55;;;;;;;58.72;25.33;;;3.30;99.90;;;;;;5034759;28;20056;-70
2022/01/26 06:02:21;;;;;;;56.25;24.40;;;3.40;99.90;;;;;;5032634;28;20052;-71
2022/01/26 06:04:47;;;;;;;60.40;26.67;;;3.40;99.90;;;;;;5034274;28;20171;-71
2022/01/26 06:07:12;;;;;;;65.03;30.02;;;3.40;99.90;;;;;;5052982;28;20120;-71
2022/01/26 06:09:38;;;;;;;68.40;31.55;;;3.30;99.90;;;;;;5050242;28;20048;-71
2022/01/26 06:12:04;;;;;;;61.45;28.88;;;3.30;99.90;;;;;;5052898;28;20045;-71
2022/01/26 06:14:29;;;;;;;54.80;25.17;;;3.30;99.90;;;;;;5020902;28;20076;-71
2022/01/26 06:16:55;;;;;;;56.28;25.45;;;3.30;99.90;;;;;;5048165;28;20072;-71
2022/01/26 06:19:20;;;;;;;57.92;25.42;;;3.20;99.90;;;;;;5032770;28;20033;-71
2022/01/26 06:21:46;;;;;;;56.45;26.77;;;3.20;99.90;;;;;;5034063;28;20053;-71
2022/01/26 06:24:11;;;;;;;64.75;26.85;;;3.30;99.90;;;;;;5049486;28;20111;-71
2022/01/26 06:26:40;;;;;;;51.00;23.00;;;3.30;99.90;;;;;;5044696;28;20029;-71
2022/01/26 06:29:05;;;;;;;57.97;26.20;;;3.20;99.90;;;;;;5034018;28;20045;-71
2022/01/26 06:31:31;;;;;;;57.60;25.70;;;3.20;99.90;;;;;;5027266;28;20047;-71
2022/01/26 06:33:57;;;;;;;50.97;22.92;;;3.30;99.90;;;;;;5013636;28;20052;-71
2022/01/26 06:36:23;;;;;;;58.38;25.25;;;3.30;99.90;;;;;;5033124;28;20414;-71
2022/01/26 06:38:49;;;;;;;58.60;25.75;;;3.30;99.90;;;;;;5030650;28;20045;-71
2022/01/26 06:41:22;;;;;;;57.55;24.92;;;3.40;99.90;;;;;;5032798;28;20041;-71
2022/01/26 06:43:52;;;;;;;52.55;24.75;;;3.30;99.90;;;;;;5017866;28;20040;-71
2022/01/26 06:51:52;;;;;;;56.03;25.52;;;3.30;99.90;;;;;;5028301;28;20040;-71
2022/01/26 06:54:17;;;;;;;53.47;22.98;;;3.30;99.90;;;;;;5028796;28;20132;-71
2022/01/26 06:56:45;;;;;;;57.25;25.08;;;3.30;99.90;;;;;;5050749;28;20115;-71
2022/01/26 06:59:11;;;;;;;52.47;22.95;;;3.30;99.90;;;;;;5033558;28;20068;-71
2022/01/26 07:01:37;;;;;;;52.33;23.67;;;3.30;99.90;;;;;;5013220;28;20051;-71
2022/01/26 07:04:02;;;;;;;54.13;23.13;;;3.30;99.90;;;;;;5032531;28;20064;-71
2022/01/26 07:06:28;;;;;;;55.60;24.67;;;3.30;99.90;;;;;;5034086;28;20064;-72
2022/01/26 07:08:54;;;;;;;56.45;24.25;;;3.30;99.90;;;;;;5049380;28;20087;-71
2022/01/26 07:11:19;;;;;;;55.88;24.05;;;3.30;99.90;;;;;;5050246;28;20053;-72
2022/01/26 07:13:45;;;;;;;59.20;25.95;;;3.30;99.90;;;;;;5043985;28;20490;-71
2022/01/26 07:21:40;;;;;;;55.72;25.92;;;3.40;99.90;;;;;;5029926;23;20053;-72
2022/01/26 07:24:06;;;;;;;56.90;25.73;;;3.30;99.90;;;;;;5013186;28;20467;-71
2022/01/26 07:26:32;;;;;;;53.80;23.50;;;3.30;99.90;;;;;;5031743;28;20053;-70
2022/01/26 07:29:07;;;;;;;54.67;25.52;;;3.30;99.90;;;;;;5028948;28;20411;-71
2022/01/26 07:31:36;;;;;;;54.38;25.00;;;3.30;99.90;;;;;;5029512;28;20116;-70
2022/01/26 07:34:02;;;;;;;53.85;24.83;;;3.40;99.90;;;;;;5028658;28;20046;-70
2022/01/26 07:36:28;;;;;;;56.15;25.33;;;3.40;99.90;;;;;;5019301;28;20127;-71
2022/01/26 07:39:05;;;;;;;59.58;26.50;;;3.40;99.90;;;;;;5032604;28;20080;-71
2022/01/26 07:41:31;;;;;;;59.05;26.50;;;3.40;99.90;;;;;;5015396;28;20052;-71
2022/01/26 07:43:56;;;;;;;63.00;27.90;;;3.40;99.90;;;;;;5019473;28;20442;-70
2022/01/26 07:46:22;;;;;;;59.42;27.40;;;3.40;99.90;;;;;;5013853;28;20576;-71
2022/01/26 07:48:48;;;;;;;61.38;28.35;;;3.40;99.90;;;;;;5016053;28;20095;-71
2022/01/26 07:51:14;;;;;;;63.30;29.45;;;3.40;99.90;;;;;;5018571;28;20045;-72
2022/01/26 07:53:39;;;;;;;64.25;28.83;;;3.40;99.90;;;;;;4997414;28;20080;-71
2022/01/26 07:56:05;;;;;;;62.22;29.77;;;3.30;99.90;;;;;;5026724;28;20040;-72
2022/01/26 07:58:30;;;;;;;68.65;31.05;;;3.40;99.90;;;;;;5014547;28;20059;-72
2022/01/26 08:00:56;;;;;;;61.17;29.83;;;3.40;99.90;;;;;;5023669;28;20038;-72
2022/01/26 08:03:22;;;;;;;64.53;28.75;;;3.40;99.90;;;;;;5021041;28;20120;-71
2022/01/26 08:05:47;;;;;;;65.93;31.55;;;3.40;99.90;;;;;;5027729;28;20051;-71
2022/01/26 08:08:13;;;;;;;70.88;32.13;;;3.50;99.90;;;;;;5006968;28;20052;-71
2022/01/26 08:10:40;;;;;;;72.65;33.50;;;3.40;99.90;;;;;;5010068;28;20441;-72
2022/01/26 08:13:05;;;;;;;76.03;34.55;;;3.50;99.90;;;;;;5027716;28;20516;-72
2022/01/26 08:15:31;;;;;;;69.28;33.13;;;3.50;99.90;;;;;;5031673;28;20033;-71
2022/01/26 08:17:58;;;;;;;73.03;33.47;;;3.50;99.90;;;;;;5032386;28;20041;-72
2022/01/26 08:20:24;;;;;;;73.70;34.03;;;3.40;99.90;;;;;;5031820;28;20057;-71
2022/01/26 08:22:52;;;;;;;74.57;35.15;;;3.50;99.90;;;;;;5030680;28;20037;-72
2022/01/26 08:25:18;;;;;;;76.93;36.50;;;3.50;99.90;;;;;;5030321;28;20060;-71
2022/01/26 08:27:45;;;;;;;81.20;36.78;;;3.50;99.90;;;;;;5031270;28;20498;-72
2022/01/26 08:30:15;;;;;;;77.72;36.50;;;3.60;99.90;;;;;;5031947;28;20718;-71
2022/01/26 08:32:41;;;;;;;78.22;35.65;;;3.60;99.90;;;;;;5012973;28;20061;-72
2022/01/26 08:35:07;;;;;;;80.85;36.55;;;3.60;99.90;;;;;;5031320;28;20048;-72
2022/01/26 08:37:32;;;;;;;82.28;37.85;;;3.60;99.90;;;;;;5031011;28;20041;-72
2022/01/26 08:39:58;;;;;;;82.97;36.95;;;3.60;99.90;;;;;;5031868;28;20041;-73
2022/01/26 08:42:24;;;;;;;81.90;37.33;;;3.60;99.90;;;;;;5015519;28;20041;-72
2022/01/26 08:44:52;;;;;;;78.97;35.67;;;3.70;99.90;;;;;;5031468;28;20044;-71
2022/01/26 08:47:18;;;;;;;83.88;40.55;;;3.70;99.90;;;;;;5032400;28;20570;-71
2022/01/26 08:49:43;;;;;;;80.95;35.63;;;3.60;99.90;;;;;;5034830;28;20049;-71
2022/01/26 08:52:09;;;;;;;92.53;39.83;;;3.70;99.90;;;;;;5034765;28;20044;-71
2022/01/26 08:54:34;;;;;;;87.55;41.45;;;3.70;99.90;;;;;;5053215;28;20506;-72
2022/01/26 08:57:00;;;;;;;89.82;39.83;;;3.60;99.90;;;;;;5019431;28;20049;-72
2022/01/26 08:59:26;;;;;;;91.60;40.67;;;3.70;99.90;;;;;;5020007;28;20059;-72
2022/01/26 09:01:51;;;;;;;88.13;42.42;;;3.70;99.90;;;;;;5033775;28;20056;-72
2022/01/26 09:04:17;;;;;;;92.72;42.97;;;3.80;99.90;;;;;;5024459;28;20067;-72
2022/01/26 09:06:54;;;;;;;87.32;40.90;;;3.80;99.90;;;;;;5030451;28;20049;-72
2022/01/26 09:09:21;;;;;;;98.53;43.42;;;3.80;99.90;;;;;;5012541;28;20517;-71
2022/01/26 09:11:48;;;;;;;86.50;42.33;;;3.80;99.90;;;;;;5030831;28;20122;-71
2022/01/26 09:14:19;;;;;;;94.43;44.47;;;3.90;99.90;;;;;;5033211;28;20075;-72
2022/01/26 09:16:51;;;;;;;93.47;42.85;;;3.80;99.90;;;;;;5019608;28;20040;-71
2022/01/26 09:19:36;;;;;;;93.82;44.35;;;3.90;99.90;;;;;;5035473;28;20045;-71
2022/01/26 09:22:05;;;;;;;92.68;43.42;;;3.90;99.90;;;;;;5031478;28;20382;-71
2022/01/26 09:24:33;;;;;;;98.45;44.60;;;3.90;99.90;;;;;;5036077;28;20402;-71
2022/01/26 09:26:59;;;;;;;95.40;44.50;;;3.90;99.90;;;;;;5029646;28;20041;-71
2022/01/26 09:29:25;;;;;;;91.90;43.97;;;3.90;99.90;;;;;;5030090;28;20068;-72
2022/01/26 09:31:50;;;;;;;93.45;44.13;;;4.00;99.90;;;;;;5043156;28;20117;-71
2022/01/26 09:34:21;;;;;;;94.57;44.13;;;4.00;99.90;;;;;;5049510;28;20397;-72
2022/01/26 09:36:47;;;;;;;89.35;43.10;;;4.00;99.90;;;;;;5036652;28;20049;-71
2022/01/26 09:39:15;;;;;;;90.97;42.88;;;4.00;99.90;;;;;;5035893;28;20035;-72
2022/01/26 09:41:40;;;;;;;87.72;42.30;;;4.00;99.90;;;;;;5072336;28;20429;-71
2022/01/26 09:44:07;;;;;;;90.68;42.92;;;4.00;99.90;;;;;;5038908;28;20132;-71
2022/01/26 09:46:32;;;;;;;90.28;43.80;;;4.10;99.90;;;;;;5035449;28;20099;-71
2022/01/26 09:48:58;;;;;;;90.25;43.33;;;4.10;99.90;;;;;;5051519;28;20064;-72
2022/01/26 09:51:24;;;;;;;96.95;44.30;;;4.10;99.90;;;;;;5053296;28;20033;-72
2022/01/26 09:54:04;;;;;;;93.70;43.03;;;4.10;99.90;;;;;;5033587;28;20425;-72
2022/01/26 09:56:30;;;;;;;94.15;44.40;;;4.10;99.90;;;;;;5032395;28;20041;-72
2022/01/26 09:58:56;;;;;;;89.60;41.70;;;4.20;99.90;;;;;;5029961;28;20394;-71
2022/01/26 10:01:22;;;;;;;95.90;43.33;;;4.20;99.90;;;;;;5001554;28;20125;-69
2022/01/26 10:03:50;;;;;;;90.65;43.35;;;4.20;99.90;;;;;;5033440;28;20056;-68
2022/01/26 10:06:28;;;;;;;87.90;43.42;;;4.20;99.90;;;;;;5004168;28;20029;-69
2022/01/26 10:09:02;;;;;;;85.57;41.13;;;4.30;99.90;;;;;;5035532;28;20114;-69
2022/01/26 10:17:23;;;;;;;87.57;43.25;;;4.30;99.90;;;;;;5034802;28;20791;-69
2022/01/26 10:19:57;;;;;;;83.63;41.60;;;4.40;99.90;;;;;;5018723;28;20083;-69
2022/01/26 10:22:43;;;;;;;84.35;42.33;;;4.40;99.90;;;;;;5052800;28;20088;-69
2022/01/26 10:25:18;;;;;;;86.47;42.35;;;4.40;99.90;;;;;;5035117;28;20044;-69
2022/01/26 10:27:49;;;;;;;90.10;44.30;;;4.50;99.90;;;;;;5033575;28;20536;-69
2022/01/26 10:30:17;;;;;;;83.25;40.63;;;4.50;99.90;;;;;;5034600;28;20397;-69
2022/01/26 10:32:47;;;;;;;86.70;42.88;;;4.50;99.90;;;;;;5034615;28;20081;-69
2022/01/26 10:35:14;;;;;;;86.90;44.65;;;4.50;99.90;;;;;;5034744;28;20045;-69
2022/01/26 10:37:54;;;;;;;89.10;45.15;;;4.60;99.90;;;;;;5034680;28;20083;-69
2022/01/26 10:40:23;;;;;;;86.60;42.42;;;4.50;99.90;;;;;;5034422;28;20087;-69
2022/01/26 10:43:06;;;;;;;89.00;41.42;;;4.60;99.90;;;;;;5033102;28;20044;-69
2022/01/26 10:45:47;;;;;;;85.90;43.05;;;4.60;99.90;;;;;;5034652;28;20033;-69
2022/01/26 10:48:28;;;;;;;85.68;41.95;;;4.60;99.90;;;;;;5034429;28;20123;-69
2022/01/26 10:53:44;;;;;;;82.50;41.42;;;4.70;99.90;;;;;;5034384;28;20179;-69
2022/01/26 10:56:10;;;;;;;84.00;42.55;;;4.70;99.90;;;;;;5049069;28;20047;-73
2022/01/26 10:58:35;;;;;;;86.47;42.05;;;4.70;99.90;;;;;;5032276;28;20037;-73
2022/01/26 11:01:01;;;;;;;76.07;39.53;;;4.70;99.90;;;;;;5029119;28;20045;-74
2022/01/26 11:03:28;;;;;;;78.18;39.72;;;4.70;99.90;;;;;;5029400;28;20044;-74
2022/01/26 11:05:54;;;;;;;81.45;39.40;;;4.80;99.90;;;;;;5018139;28;20037;-73
2022/01/26 11:08:21;;;;;;;84.18;39.45;;;4.80;99.90;;;;;;5027851;28;20492;-73
2022/01/26 11:10:47;;;;;;;71.05;36.60;;;4.80;99.90;;;;;;5033788;28;20048;-73
2022/01/26 11:13:28;;;;;;;73.43;38.28;;;4.80;99.90;;;;;;5021668;28;20367;-73
2022/01/26 11:16:05;;;;;;;75.93;38.80;;;4.90;99.90;;;;;;5028368;28;20033;-73
2022/01/26 11:18:33;;;;;;;78.25;38.95;;;4.90;99.90;;;;;;5035772;28;20504;-73
2022/01/26 11:20:58;;;;;;;68.28;33.85;;;4.90;99.90;;;;;;5033058;28;20697;-73
2022/01/26 11:23:36;;;;;;;77.70;39.17;;;5.10;99.90;;;;;;5033406;28;20053;-74
2022/01/26 11:26:03;;;;;;;71.05;37.70;;;5.00;99.90;;;;;;5034704;28;20409;-73
2022/01/26 11:28:30;;;;;;;72.30;36.45;;;5.10;99.90;;;;;;5028854;28;20037;-73
2022/01/26 11:31:02;;;;;;;73.03;36.42;;;5.10;99.90;;;;;;5032684;28;20478;-74
2022/01/26 11:33:29;;;;;;;77.03;39.05;;;5.10;99.90;;;;;;5027761;28;20482;-73
2022/01/26 11:35:57;;;;;;;75.00;37.08;;;5.20;99.90;;;;;;5032761;28;20098;-74
2022/01/26 11:47:19;;;;;;;73.25;35.00;;;5.30;99.90;;;;;;5029528;28;20049;-73
2022/01/26 11:49:46;;;;;;;74.90;38.85;;;5.30;99.90;;;;;;5026624;28;20048;-73
2022/01/26 11:52:19;;;;;;;75.22;38.25;;;5.30;99.90;;;;;;5035559;28;20044;-73
2022/01/26 11:54:52;;;;;;;72.85;36.78;;;5.30;99.90;;;;;;5029704;28;20045;-73
2022/01/26 11:57:20;;;;;;;77.70;37.90;;;5.30;99.90;;;;;;5053144;28;20033;-73
2022/01/26 12:00:03;;;;;;;73.03;36.40;;;5.30;99.90;;;;;;5010240;28;20053;-73
2022/01/26 12:05:15;;;;;;;74.25;35.38;;;5.40;99.90;;;;;;5018107;28;20506;-74
2022/01/26 12:07:51;;;;;;;71.72;36.92;;;5.30;99.90;;;;;;5008457;28;20072;-74
2022/01/26 12:10:26;;;;;;;68.38;35.63;;;5.30;99.90;;;;;;5027350;28;20064;-74
2022/01/26 12:13:08;;;;;;;69.97;34.38;;;5.20;99.90;;;;;;5028500;28;20382;-74
2022/01/26 12:15:50;;;;;;;68.38;34.33;;;5.20;99.90;;;;;;5010487;28;20044;-73
2022/01/26 12:32:31;;;;;;;66.60;31.92;;;5.30;99.90;;;;;;5050849;28;20051;-74
2022/01/26 12:35:11;;;;;;;66.50;31.52;;;5.30;99.90;;;;;;5033883;28;20049;-74
2022/01/26 12:43:40;;;;;;;64.28;31.50;;;5.40;99.90;;;;;;5038754;28;20493;-73
2022/01/26 12:46:09;;;;;;;65.50;32.50;;;5.40;99.90;;;;;;5030527;28;20037;-73
2022/01/26 12:48:38;;;;;;;68.13;32.92;;;5.40;99.90;;;;;;5034317;28;20067;-74
2022/01/26 12:51:06;;;;;;;70.30;32.95;;;5.30;99.90;;;;;;5030965;28;20541;-73
2022/01/26 12:53:35;;;;;;;64.82;32.35;;;5.40;99.90;;;;;;5030816;28;20036;-73
2022/01/26 12:56:06;;;;;;;65.03;31.90;;;5.40;99.90;;;;;;5028596;28;20049;-74
2022/01/26 12:58:35;;;;;;;68.28;32.25;;;5.40;99.90;;;;;;5019896;28;20045;-73
2022/01/26 13:01:05;;;;;;;64.97;31.65;;;5.30;99.90;;;;;;5048680;28;20045;-73
2022/01/26 13:03:33;;;;;;;63.38;29.38;;;5.30;99.90;;;;;;5031127;28;20111;-73
2022/01/26 13:06:22;;;;;;;62.22;31.48;;;5.30;99.90;;;;;;5008899;28;20056;-73
2022/01/26 13:08:50;;;;;;;67.53;31.40;;;5.30;99.90;;;;;;5049248;28;20037;-74
2022/01/26 13:11:49;;;;;;;62.15;31.67;;;5.30;99.90;;;;;;5026867;28;20056;-74
2022/01/26 13:14:26;;;;;;;61.00;32.30;;;5.30;99.90;;;;;;4998604;28;20479;-74
2022/01/26 13:19:39;;;;;;;64.75;32.10;;;5.30;99.90;;;;;;5047258;28;20041;-70
2022/01/26 13:27:35;;;;;;;63.50;32.20;;;5.30;99.90;;;;;;5034357;28;20503;-69
2022/01/26 13:30:35;;;;;;;55.83;27.90;;;5.40;99.90;;;;;;5032033;28;20049;-69
2022/01/26 13:35:38;;;;;;;63.22;32.47;;;5.40;99.90;;;;;;5031180;28;20048;-69
2022/01/26 13:40:50;;;;;;;66.13;30.23;;;5.40;99.90;;;;;;5036936;28;20055;-69
2022/01/26 13:43:51;;;;;;;62.90;31.38;;;5.50;99.90;;;;;;5017309;28;20037;-69
2022/01/26 13:46:47;;;;;;;60.17;30.52;;;5.50;99.90;;;;;;5035198;28;20057;-69
2022/01/26 13:49:32;;;;;;;65.25;33.83;;;5.50;99.90;;;;;;5035447;28;20045;-69
2022/01/26 13:52:15;;;;;;;69.38;34.95;;;5.50;99.90;;;;;;5035003;28;20497;-69
2022/01/26 13:55:02;;;;;;;65.50;33.72;;;5.60;99.90;;;;;;5017880;28;20033;-70
2022/01/26 14:00:36;;;;;;;70.15;31.73;;;5.50;99.90;;;;;;4945143;28;20117;-70
2022/01/26 14:03:05;;;;;;;67.03;34.45;;;5.50;99.90;;;;;;5025099;28;20128;-70
2022/01/26 14:05:30;;;;;;;65.60;32.78;;;5.50;99.90;;;;;;5039244;28;20041;-70
2022/01/26 14:07:56;;;;;;;67.28;33.60;;;5.60;99.90;;;;;;5025016;28;20039;-70
2022/01/26 14:10:23;;;;;;;66.38;33.72;;;5.60;99.90;;;;;;5043470;28;20036;-70
2022/01/26 14:12:49;;;;;;;53.05;24.25;;;5.60;99.90;;;;;;5040546;28;20101;-70
2022/01/26 14:15:21;;;;;;;62.40;31.25;;;5.60;99.90;;;;;;5039318;28;20051;-70
2022/01/26 14:18:11;;;;;;;65.95;32.50;;;5.70;99.90;;;;;;5027572;28;20053;-70
2022/01/26 14:20:54;;;;;;;62.55;30.25;;;5.70;99.90;;;;;;5027943;28;20560;-70
2022/01/26 14:25:51;;;;;;;58.85;30.52;;;5.70;99.90;;;;;;5025035;28;20048;-70
2022/01/26 14:28:21;;;;;;;60.17;29.27;;;5.70;99.90;;;;;;5013513;28;20429;-70
2022/01/26 15:00:10;;;;;;;48.88;26.42;;;5.70;99.90;;;;;;5033662;28;20049;-70
2022/01/26 15:12:07;;;;;;;53.92;27.98;;;5.70;99.90;;;;;;5033331;28;20060;-70
2022/01/26 15:30:13;;;;;;;53.80;28.55;;;5.70;99.90;;;;;;5034024;28;20049;-70
2022/01/26 15:35:27;;;;;;;56.17;27.25;;;5.70;99.90;;;;;;5034393;28;20052;-70
2022/01/26 15:40:49;;;;;;;55.90;29.40;;;5.70;99.90;;;;;;5040607;28;20044;-70
2022/01/26 15:51:15;;;;;;;54.35;29.77;;;5.70;99.90;;;;;;5033253;28;20044;-70
2022/01/26 16:05:01;;;;;;;54.88;29.83;;;5.70;99.90;;;;;;5028668;28;20079;-73
2022/01/26 16:07:28;;;;;;;56.13;29.83;;;5.70;99.90;;;;;;5049988;28;20130;-74
2022/01/26 16:12:58;;;;;;;53.42;28.08;;;5.70;99.90;;;;;;5031637;28;20124;-73
2022/01/26 16:21:16;;;;;;;54.58;29.42;;;5.60;99.90;;;;;;5027860;28;20140;-73
2022/01/26 16:37:43;;;;;;;53.50;28.98;;;5.60;99.90;;;;;;5024799;28;20049;-73
2022/01/26 16:52:24;;;;;;;52.10;28.90;;;5.60;99.90;;;;;;5028756;28;20049;-73
2022/01/26 17:21:15;;;;;;;49.78;27.20;;;5.70;99.90;;;;;;5032613;28;20507;-70
2022/01/26 17:24:19;;;;;;;59.90;29.60;;;5.50;99.90;;;;;;5037593;28;20391;-70
2022/01/26 17:43:15;;;;;;;53.67;30.27;;;5.60;99.90;;;;;;5029747;28;20077;-70
2022/01/26 18:13:16;;;;;;;51.63;27.58;;;5.60;99.90;;;;;;5034366;28;20048;-70
2022/01/26 18:26:49;;;;;;;46.63;25.25;;;5.70;99.90;;;;;;5051236;28;20118;-70
2022/01/26 18:32:15;;;;;;;46.45;24.17;;;5.70;99.90;;;;;;5044137;28;20371;-70
2022/01/26 18:40:38;;;;;;;47.80;27.05;;;5.80;99.90;;;;;;5022353;28;20068;-70
2022/01/26 18:51:05;;;;;;;45.08;24.55;;;5.90;99.90;;;;;;5051310;28;20041;-70
2022/01/26 18:53:31;;;;;;;44.67;24.80;;;5.90;99.90;;;;;;5028043;28;20064;-71
2022/01/26 18:55:56;;;;;;;42.00;24.55;;;5.90;99.90;;;;;;5029442;28;20057;-70